Main page
METAR-TAF:

METAR-TAF

Airports :

Campbeltown, Scotland

Campbeltown Airport

latitude: 55-26-14N, longitude: 005-41-11W, elevation: 13 m

Current weather observation

The report was made 21 hours and 7 minutes ago, at 16:50 UTC
Wind 9 kt from the West/Northwest
Temperature 14°C
Humidity 77%
Pressure 1009 hPa
Visibility 10 km or more
Broken clouds at a height of 2900 ft

METAR: EGEC 231650Z 29009KT 9999 BKN029 14/10 Q1009

Time: 14:57 (13:57 UTC)

Forecast

The report was made 0 minutes ago, at 13:57 UTC
Forecast valid from 23 at 15 UTC to 23 at 17 UTC
Wind 13 kt from the West
Visibility 10 km or more
Few clouds at a height of 2000 ft
Scattered clouds at a height of 3500 ft
Probability 30% :
Temporary
from 23 at 15 UTC to 23 at 17 UTC
Wind 16 kt from the West with gusts up to 26 kt

TAF: EGEC 231357Z 2315/2317 26013KT 9999 FEW020 SCT035 PROB30 TEMPO 2315/2317 27016G26KT

Weather observations and forecasts of more than 4000 airports (METAR and TAF reports).

The available stations are represented by yellow and red dots on the map.

Hover mouse over dot to see the name of the station.

Then click to see weather observations and forecasts.

To change the map : click on the green buttons with a black cross to zoom in, on the green button with a dash to zoom out, or on the green arrows for adjacent maps.


METAR-TAF: